sensor_id;sensor_type;location;lat;lon;timestamp;P1;durP1;ratioP1;P2;durP2;ratioP2
9789;SDS011;4934;50.852;8.098;2023-04-03T00:01:34;11.30;;;4.00;;
9789;SDS011;4934;50.852;8.098;2023-04-03T00:04:01;7.40;;;3.63;;
9789;SDS011;4934;50.852;8.098;2023-04-03T00:06:27;10.57;;;3.27;;
9789;SDS011;4934;50.852;8.098;2023-04-03T00:08:52;6.10;;;3.27;;
9789;SDS011;4934;50.852;8.098;2023-04-03T00:11:18;6.63;;;2.70;;
9789;SDS011;4934;50.852;8.098;2023-04-03T00:13:45;7.60;;;2.73;;
9789;SDS011;4934;50.852;8.098;2023-04-03T00:16:11;6.50;;;3.00;;
9789;SDS011;4934;50.852;8.098;2023-04-03T00:18:37;7.77;;;3.17;;
9789;SDS011;4934;50.852;8.098;2023-04-03T00:21:04;7.97;;;3.60;;
9789;SDS011;4934;50.852;8.098;2023-04-03T00:23:30;7.57;;;2.80;;
9789;SDS011;4934;50.852;8.098;2023-04-03T00:25:56;6.83;;;2.53;;
9789;SDS011;4934;50.852;8.098;2023-04-03T00:28:22;5.87;;;2.90;;
9789;SDS011;4934;50.852;8.098;2023-04-03T00:30:48;11.40;;;2.60;;
9789;SDS011;4934;50.852;8.098;2023-04-03T00:33:15;13.23;;;3.37;;
9789;SDS011;4934;50.852;8.098;2023-04-03T00:35:41;8.00;;;3.47;;
9789;SDS011;4934;50.852;8.098;2023-04-03T00:38:06;7.87;;;2.83;;
9789;SDS011;4934;50.852;8.098;2023-04-03T00:40:33;10.20;;;3.67;;
9789;SDS011;4934;50.852;8.098;2023-04-03T00:43:01;21.90;;;6.75;;
9789;SDS011;4934;50.852;8.098;2023-04-03T00:45:32;9.37;;;3.20;;
9789;SDS011;4934;50.852;8.098;2023-04-03T00:48:00;5.60;;;2.33;;
9789;SDS011;4934;50.852;8.098;2023-04-03T00:50:30;9.93;;;2.50;;
9789;SDS011;4934;50.852;8.098;2023-04-03T00:52:57;7.67;;;2.50;;
9789;SDS011;4934;50.852;8.098;2023-04-03T00:55:23;6.17;;;2.03;;
9789;SDS011;4934;50.852;8.098;2023-04-03T00:57:48;6.17;;;1.97;;
9789;SDS011;4934;50.852;8.098;2023-04-03T01:00:15;9.10;;;2.33;;
9789;SDS011;4934;50.852;8.098;2023-04-03T01:02:43;6.78;;;3.08;;
9789;SDS011;4934;50.852;8.098;2023-04-03T01:05:09;5.50;;;2.43;;
9789;SDS011;4934;50.852;8.098;2023-04-03T01:07:36;8.53;;;2.10;;
9789;SDS011;4934;50.852;8.098;2023-04-03T01:10:07;5.13;;;1.20;;
9789;SDS011;4934;50.852;8.098;2023-04-03T01:12:39;2.20;;;1.13;;
9789;SDS011;4934;50.852;8.098;2023-04-03T01:15:14;4.93;;;1.40;;
9789;SDS011;4934;50.852;8.098;2023-04-03T01:17:47;9.83;;;1.70;;
9789;SDS011;4934;50.852;8.098;2023-04-03T01:25:36;5.23;;;1.47;;
9789;SDS011;4934;50.852;8.098;2023-04-03T01:28:05;6.30;;;2.03;;
9789;SDS011;4934;50.852;8.098;2023-04-03T01:30:34;5.43;;;1.95;;
9789;SDS011;4934;50.852;8.098;2023-04-03T01:33:06;7.27;;;1.73;;
9789;SDS011;4934;50.852;8.098;2023-04-03T01:35:31;5.50;;;1.50;;
9789;SDS011;4934;50.852;8.098;2023-04-03T01:37:57;2.97;;;1.40;;
9789;SDS011;4934;50.852;8.098;2023-04-03T01:40:22;4.97;;;1.40;;
9789;SDS011;4934;50.852;8.098;2023-04-03T01:42:48;5.30;;;1.90;;
9789;SDS011;4934;50.852;8.098;2023-04-03T01:45:14;4.37;;;1.77;;
9789;SDS011;4934;50.852;8.098;2023-04-03T01:47:40;4.87;;;1.87;;
9789;SDS011;4934;50.852;8.098;2023-04-03T01:50:05;4.87;;;1.43;;
9789;SDS011;4934;50.852;8.098;2023-04-03T01:52:31;3.57;;;1.53;;
9789;SDS011;4934;50.852;8.098;2023-04-03T01:54:57;3.23;;;1.13;;
9789;SDS011;4934;50.852;8.098;2023-04-03T01:57:22;3.27;;;1.40;;
9789;SDS011;4934;50.852;8.098;2023-04-03T01:59:48;5.87;;;1.73;;
9789;SDS011;4934;50.852;8.098;2023-04-03T02:02:13;4.20;;;1.80;;
9789;SDS011;4934;50.852;8.098;2023-04-03T02:04:40;4.93;;;1.17;;
9789;SDS011;4934;50.852;8.098;2023-04-03T02:07:06;4.97;;;1.90;;
9789;SDS011;4934;50.852;8.098;2023-04-03T02:09:31;8.97;;;1.43;;
9789;SDS011;4934;50.852;8.098;2023-04-03T02:11:57;6.33;;;1.77;;
9789;SDS011;4934;50.852;8.098;2023-04-03T02:14:22;2.33;;;1.20;;
9789;SDS011;4934;50.852;8.098;2023-04-03T02:16:48;5.53;;;1.60;;
9789;SDS011;4934;50.852;8.098;2023-04-03T02:19:14;2.40;;;1.13;;
9789;SDS011;4934;50.852;8.098;2023-04-03T02:21:40;4.33;;;1.33;;
9789;SDS011;4934;50.852;8.098;2023-04-03T02:24:06;3.33;;;1.30;;
9789;SDS011;4934;50.852;8.098;2023-04-03T02:26:32;4.17;;;1.30;;
9789;SDS011;4934;50.852;8.098;2023-04-03T02:28:57;5.03;;;1.40;;
9789;SDS011;4934;50.852;8.098;2023-04-03T02:31:23;5.93;;;1.33;;
9789;SDS011;4934;50.852;8.098;2023-04-03T02:33:49;5.70;;;1.30;;
9789;SDS011;4934;50.852;8.098;2023-04-03T02:36:15;4.87;;;1.17;;
9789;SDS011;4934;50.852;8.098;2023-04-03T02:38:40;5.43;;;1.67;;
9789;SDS011;4934;50.852;8.098;2023-04-03T02:41:07;2.70;;;1.50;;
9789;SDS011;4934;50.852;8.098;2023-04-03T02:43:36;6.00;;;1.57;;
9789;SDS011;4934;50.852;8.098;2023-04-03T02:46:02;4.07;;;1.40;;
9789;SDS011;4934;50.852;8.098;2023-04-03T02:48:28;4.47;;;1.20;;
9789;SDS011;4934;50.852;8.098;2023-04-03T02:50:54;4.10;;;1.10;;
9789;SDS011;4934;50.852;8.098;2023-04-03T02:53:20;2.73;;;1.40;;
9789;SDS011;4934;50.852;8.098;2023-04-03T02:55:46;6.63;;;1.47;;
9789;SDS011;4934;50.852;8.098;2023-04-03T02:58:12;8.13;;;1.13;;
9789;SDS011;4934;50.852;8.098;2023-04-03T03:00:38;2.47;;;0.93;;
9789;SDS011;4934;50.852;8.098;2023-04-03T03:03:03;5.43;;;1.17;;
9789;SDS011;4934;50.852;8.098;2023-04-03T03:05:30;7.00;;;1.30;;
9789;SDS011;4934;50.852;8.098;2023-04-03T03:07:56;4.90;;;1.00;;
9789;SDS011;4934;50.852;8.098;2023-04-03T03:10:22;3.53;;;1.63;;
9789;SDS011;4934;50.852;8.098;2023-04-03T03:12:48;5.73;;;1.33;;
9789;SDS011;4934;50.852;8.098;2023-04-03T03:15:14;3.70;;;0.80;;
9789;SDS011;4934;50.852;8.098;2023-04-03T03:17:41;6.07;;;1.70;;
9789;SDS011;4934;50.852;8.098;2023-04-03T03:20:07;9.60;;;2.40;;
9789;SDS011;4934;50.852;8.098;2023-04-03T03:22:33;7.20;;;1.47;;
9789;SDS011;4934;50.852;8.098;2023-04-03T03:24:59;3.13;;;1.23;;
9789;SDS011;4934;50.852;8.098;2023-04-03T03:27:25;3.67;;;1.10;;
9789;SDS011;4934;50.852;8.098;2023-04-03T03:29:51;7.17;;;1.13;;
9789;SDS011;4934;50.852;8.098;2023-04-03T03:32:17;6.47;;;1.33;;
9789;SDS011;4934;50.852;8.098;2023-04-03T03:34:42;6.10;;;1.33;;
9789;SDS011;4934;50.852;8.098;2023-04-03T03:37:08;1.97;;;1.03;;
9789;SDS011;4934;50.852;8.098;2023-04-03T03:39:33;5.37;;;1.30;;
9789;SDS011;4934;50.852;8.098;2023-04-03T03:41:59;7.03;;;1.43;;
9789;SDS011;4934;50.852;8.098;2023-04-03T03:44:25;7.90;;;1.50;;
9789;SDS011;4934;50.852;8.098;2023-04-03T03:46:50;8.73;;;1.10;;
9789;SDS011;4934;50.852;8.098;2023-04-03T03:49:16;4.03;;;1.20;;
9789;SDS011;4934;50.852;8.098;2023-04-03T03:51:42;9.43;;;1.30;;
9789;SDS011;4934;50.852;8.098;2023-04-03T03:54:07;1.73;;;1.10;;
9789;SDS011;4934;50.852;8.098;2023-04-03T03:56:33;6.27;;;1.63;;
9789;SDS011;4934;50.852;8.098;2023-04-03T03:58:58;5.63;;;1.50;;
9789;SDS011;4934;50.852;8.098;2023-04-03T04:01:24;8.70;;;1.90;;
9789;SDS011;4934;50.852;8.098;2023-04-03T04:03:50;5.27;;;1.27;;
9789;SDS011;4934;50.852;8.098;2023-04-03T04:06:16;10.37;;;1.83;;
9789;SDS011;4934;50.852;8.098;2023-04-03T04:08:42;3.83;;;1.33;;
9789;SDS011;4934;50.852;8.098;2023-04-03T04:11:08;7.53;;;1.40;;
9789;SDS011;4934;50.852;8.098;2023-04-03T04:13:34;4.97;;;1.40;;
9789;SDS011;4934;50.852;8.098;2023-04-03T04:16:00;2.60;;;1.20;;
9789;SDS011;4934;50.852;8.098;2023-04-03T04:18:26;5.20;;;1.40;;
9789;SDS011;4934;50.852;8.098;2023-04-03T04:20:51;7.97;;;1.50;;
9789;SDS011;4934;50.852;8.098;2023-04-03T04:23:17;4.80;;;2.33;;
9789;SDS011;4934;50.852;8.098;2023-04-03T04:25:44;8.60;;;2.70;;
9789;SDS011;4934;50.852;8.098;2023-04-03T04:28:11;9.77;;;3.33;;
9789;SDS011;4934;50.852;8.098;2023-04-03T04:30:36;6.87;;;3.10;;
9789;SDS011;4934;50.852;8.098;2023-04-03T04:33:02;14.33;;;3.97;;
9789;SDS011;4934;50.852;8.098;2023-04-03T04:35:28;17.47;;;5.40;;
9789;SDS011;4934;50.852;8.098;2023-04-03T04:37:54;8.13;;;4.07;;
9789;SDS011;4934;50.852;8.098;2023-04-03T04:40:19;8.00;;;2.57;;
9789;SDS011;4934;50.852;8.098;2023-04-03T04:42:46;6.23;;;2.13;;
9789;SDS011;4934;50.852;8.098;2023-04-03T04:45:11;5.70;;;2.13;;
9789;SDS011;4934;50.852;8.098;2023-04-03T04:47:37;6.63;;;3.37;;
9789;SDS011;4934;50.852;8.098;2023-04-03T04:50:03;14.37;;;3.50;;
9789;SDS011;4934;50.852;8.098;2023-04-03T04:52:29;10.23;;;3.47;;
9789;SDS011;4934;50.852;8.098;2023-04-03T04:54:54;11.03;;;4.10;;
9789;SDS011;4934;50.852;8.098;2023-04-03T04:57:20;12.57;;;4.87;;
9789;SDS011;4934;50.852;8.098;2023-04-03T04:59:45;14.37;;;4.30;;
9789;SDS011;4934;50.852;8.098;2023-04-03T05:02:11;5.33;;;2.13;;
9789;SDS011;4934;50.852;8.098;2023-04-03T05:04:37;4.50;;;2.10;;
9789;SDS011;4934;50.852;8.098;2023-04-03T05:07:02;3.73;;;1.70;;
9789;SDS011;4934;50.852;8.098;2023-04-03T05:09:28;5.30;;;1.50;;
9789;SDS011;4934;50.852;8.098;2023-04-03T05:11:54;8.97;;;3.17;;
9789;SDS011;4934;50.852;8.098;2023-04-03T05:14:21;4.73;;;1.37;;
9789;SDS011;4934;50.852;8.098;2023-04-03T05:16:46;3.13;;;1.70;;
9789;SDS011;4934;50.852;8.098;2023-04-03T05:19:12;6.47;;;1.87;;
9789;SDS011;4934;50.852;8.098;2023-04-03T05:21:38;8.63;;;1.57;;
9789;SDS011;4934;50.852;8.098;2023-04-03T05:24:04;5.57;;;1.70;;
9789;SDS011;4934;50.852;8.098;2023-04-03T05:26:30;7.10;;;2.00;;
9789;SDS011;4934;50.852;8.098;2023-04-03T05:28:56;9.20;;;2.70;;
9789;SDS011;4934;50.852;8.098;2023-04-03T05:31:22;4.53;;;1.53;;
9789;SDS011;4934;50.852;8.098;2023-04-03T05:33:48;3.73;;;1.77;;
9789;SDS011;4934;50.852;8.098;2023-04-03T05:36:14;6.23;;;1.83;;
9789;SDS011;4934;50.852;8.098;2023-04-03T05:38:39;6.73;;;2.57;;
9789;SDS011;4934;50.852;8.098;2023-04-03T05:41:05;7.87;;;2.20;;
9789;SDS011;4934;50.852;8.098;2023-04-03T05:43:31;8.33;;;2.40;;
9789;SDS011;4934;50.852;8.098;2023-04-03T05:45:57;6.77;;;3.07;;
9789;SDS011;4934;50.852;8.098;2023-04-03T05:48:23;13.27;;;4.60;;
9789;SDS011;4934;50.852;8.098;2023-04-03T05:50:51;10.55;;;3.25;;
9789;SDS011;4934;50.852;8.098;2023-04-03T05:53:19;10.57;;;3.37;;
9789;SDS011;4934;50.852;8.098;2023-04-03T05:55:49;11.40;;;3.93;;
9789;SDS011;4934;50.852;8.098;2023-04-03T05:58:17;15.57;;;3.47;;
9789;SDS011;4934;50.852;8.098;2023-04-03T06:00:52;17.03;;;3.90;;
9789;SDS011;4934;50.852;8.098;2023-04-03T06:03:18;8.67;;;2.73;;
9789;SDS011;4934;50.852;8.098;2023-04-03T06:05:46;14.53;;;3.97;;
9789;SDS011;4934;50.852;8.098;2023-04-03T06:08:11;6.73;;;2.20;;
9789;SDS011;4934;50.852;8.098;2023-04-03T06:10:37;8.30;;;2.83;;
9789;SDS011;4934;50.852;8.098;2023-04-03T06:13:03;6.63;;;2.10;;
9789;SDS011;4934;50.852;8.098;2023-04-03T06:15:29;6.40;;;2.43;;
9789;SDS011;4934;50.852;8.098;2023-04-03T06:17:55;7.93;;;2.60;;
9789;SDS011;4934;50.852;8.098;2023-04-03T06:20:21;10.83;;;3.23;;
9789;SDS011;4934;50.852;8.098;2023-04-03T06:22:47;7.27;;;2.10;;
9789;SDS011;4934;50.852;8.098;2023-04-03T06:25:13;4.40;;;2.10;;
9789;SDS011;4934;50.852;8.098;2023-04-03T06:27:39;10.37;;;1.60;;
9789;SDS011;4934;50.852;8.098;2023-04-03T06:30:05;5.27;;;2.00;;
9789;SDS011;4934;50.852;8.098;2023-04-03T06:32:32;7.37;;;1.80;;
9789;SDS011;4934;50.852;8.098;2023-04-03T06:34:57;8.70;;;1.87;;
9789;SDS011;4934;50.852;8.098;2023-04-03T06:37:24;3.27;;;1.50;;
9789;SDS011;4934;50.852;8.098;2023-04-03T06:39:54;7.37;;;1.93;;
9789;SDS011;4934;50.852;8.098;2023-04-03T06:42:19;7.33;;;1.80;;
9789;SDS011;4934;50.852;8.098;2023-04-03T06:44:46;5.00;;;1.97;;
9789;SDS011;4934;50.852;8.098;2023-04-03T06:47:13;4.10;;;2.10;;
9789;SDS011;4934;50.852;8.098;2023-04-03T06:49:40;7.47;;;1.80;;
9789;SDS011;4934;50.852;8.098;2023-04-03T06:52:06;4.33;;;2.50;;
9789;SDS011;4934;50.852;8.098;2023-04-03T06:54:32;5.30;;;2.10;;
9789;SDS011;4934;50.852;8.098;2023-04-03T06:56:58;5.87;;;2.20;;
9789;SDS011;4934;50.852;8.098;2023-04-03T06:59:24;10.70;;;2.70;;
9789;SDS011;4934;50.852;8.098;2023-04-03T07:01:50;12.43;;;2.77;;
9789;SDS011;4934;50.852;8.098;2023-04-03T07:04:16;5.23;;;1.70;;
9789;SDS011;4934;50.852;8.098;2023-04-03T07:06:42;10.00;;;2.40;;
9789;SDS011;4934;50.852;8.098;2023-04-03T07:09:08;5.47;;;2.07;;
9789;SDS011;4934;50.852;8.098;2023-04-03T07:11:34;7.80;;;1.90;;
9789;SDS011;4934;50.852;8.098;2023-04-03T07:14:01;6.97;;;2.77;;
9789;SDS011;4934;50.852;8.098;2023-04-03T07:16:27;9.27;;;2.00;;
9789;SDS011;4934;50.852;8.098;2023-04-03T07:18:55;6.30;;;2.40;;
9789;SDS011;4934;50.852;8.098;2023-04-03T07:21:21;6.97;;;1.77;;
9789;SDS011;4934;50.852;8.098;2023-04-03T07:23:47;7.77;;;2.33;;
9789;SDS011;4934;50.852;8.098;2023-04-03T07:26:12;13.97;;;2.53;;
9789;SDS011;4934;50.852;8.098;2023-04-03T07:28:38;5.93;;;1.97;;
9789;SDS011;4934;50.852;8.098;2023-04-03T07:31:06;8.30;;;1.63;;
9789;SDS011;4934;50.852;8.098;2023-04-03T07:33:36;6.23;;;1.97;;
9789;SDS011;4934;50.852;8.098;2023-04-03T07:36:02;8.63;;;1.73;;
9789;SDS011;4934;50.852;8.098;2023-04-03T07:38:28;10.53;;;2.37;;
9789;SDS011;4934;50.852;8.098;2023-04-03T07:40:56;7.50;;;2.37;;
9789;SDS011;4934;50.852;8.098;2023-04-03T07:43:24;9.18;;;2.38;;
9789;SDS011;4934;50.852;8.098;2023-04-03T07:45:51;5.67;;;1.97;;
9789;SDS011;4934;50.852;8.098;2023-04-03T07:48:17;9.63;;;2.53;;
9789;SDS011;4934;50.852;8.098;2023-04-03T07:50:44;13.52;;;2.33;;
9789;SDS011;4934;50.852;8.098;2023-04-03T07:53:10;5.83;;;1.70;;
9789;SDS011;4934;50.852;8.098;2023-04-03T07:55:36;9.13;;;2.20;;
9789;SDS011;4934;50.852;8.098;2023-04-03T07:58:11;8.80;;;2.10;;
9789;SDS011;4934;50.852;8.098;2023-04-03T08:00:38;8.40;;;3.13;;
9789;SDS011;4934;50.852;8.098;2023-04-03T08:03:04;8.53;;;1.70;;
9789;SDS011;4934;50.852;8.098;2023-04-03T08:05:31;4.87;;;1.37;;
9789;SDS011;4934;50.852;8.098;2023-04-03T08:08:01;12.10;;;1.83;;
9789;SDS011;4934;50.852;8.098;2023-04-03T08:10:27;7.33;;;2.07;;
9789;SDS011;4934;50.852;8.098;2023-04-03T08:12:55;10.10;;;2.22;;
9789;SDS011;4934;50.852;8.098;2023-04-03T08:15:21;24.63;;;6.70;;
9789;SDS011;4934;50.852;8.098;2023-04-03T08:17:47;4.70;;;2.23;;
9789;SDS011;4934;50.852;8.098;2023-04-03T08:20:13;5.80;;;2.10;;
9789;SDS011;4934;50.852;8.098;2023-04-03T08:22:38;10.53;;;3.63;;
9789;SDS011;4934;50.852;8.098;2023-04-03T08:25:04;11.13;;;1.87;;
9789;SDS011;4934;50.852;8.098;2023-04-03T08:27:30;5.20;;;1.63;;
9789;SDS011;4934;50.852;8.098;2023-04-03T08:29:56;7.67;;;2.30;;
9789;SDS011;4934;50.852;8.098;2023-04-03T08:32:24;12.17;;;1.83;;
9789;SDS011;4934;50.852;8.098;2023-04-03T08:35:08;11.95;;;1.70;;
9789;SDS011;4934;50.852;8.098;2023-04-03T08:37:39;10.50;;;2.03;;
9789;SDS011;4934;50.852;8.098;2023-04-03T08:44:07;9.90;;;1.83;;
9789;SDS011;4934;50.852;8.098;2023-04-03T08:47:42;9.43;;;1.67;;
9789;SDS011;4934;50.852;8.098;2023-04-03T08:50:18;8.63;;;1.83;;
9789;SDS011;4934;50.852;8.098;2023-04-03T08:52:47;3.50;;;1.30;;
9789;SDS011;4934;50.852;8.098;2023-04-03T08:57:51;11.70;;;1.90;;
9789;SDS011;4934;50.852;8.098;2023-04-03T09:00:27;2.80;;;1.40;;
9789;SDS011;4934;50.852;8.098;2023-04-03T09:02:57;4.13;;;1.50;;
9789;SDS011;4934;50.852;8.098;2023-04-03T09:05:35;6.07;;;1.80;;
9789;SDS011;4934;50.852;8.098;2023-04-03T09:08:30;2.30;;;1.20;;
9789;SDS011;4934;50.852;8.098;2023-04-03T09:11:14;9.30;;;1.57;;
9789;SDS011;4934;50.852;8.098;2023-04-03T09:13:57;2.63;;;1.48;;
9789;SDS011;4934;50.852;8.098;2023-04-03T09:22:47;9.33;;;1.53;;
9789;SDS011;4934;50.852;8.098;2023-04-03T09:25:15;2.50;;;1.00;;
9789;SDS011;4934;50.852;8.098;2023-04-03T09:27:42;3.27;;;1.10;;
9789;SDS011;4934;50.852;8.098;2023-04-03T09:30:12;8.03;;;1.60;;
9789;SDS011;4934;50.852;8.098;2023-04-03T09:32:46;3.80;;;1.20;;
9789;SDS011;4934;50.852;8.098;2023-04-03T09:38:01;4.17;;;1.10;;
9789;SDS011;4934;50.852;8.098;2023-04-03T09:43:58;8.80;;;1.33;;
9789;SDS011;4934;50.852;8.098;2023-04-03T09:46:31;3.10;;;1.58;;
9789;SDS011;4934;50.852;8.098;2023-04-03T09:49:03;7.18;;;1.52;;
9789;SDS011;4934;50.852;8.098;2023-04-03T09:51:30;6.30;;;1.35;;
9789;SDS011;4934;50.852;8.098;2023-04-03T09:53:56;2.00;;;1.10;;
9789;SDS011;4934;50.852;8.098;2023-04-03T09:56:27;3.88;;;1.70;;
9789;SDS011;4934;50.852;8.098;2023-04-03T10:01:30;4.07;;;1.27;;
9789;SDS011;4934;50.852;8.098;2023-04-03T10:04:14;4.30;;;1.50;;
9789;SDS011;4934;50.852;8.098;2023-04-03T10:06:48;3.47;;;2.20;;
9789;SDS011;4934;50.852;8.098;2023-04-03T10:14:24;5.10;;;1.27;;
9789;SDS011;4934;50.852;8.098;2023-04-03T10:16:53;4.55;;;1.20;;
9789;SDS011;4934;50.852;8.098;2023-04-03T10:19:32;3.45;;;1.23;;
9789;SDS011;4934;50.852;8.098;2023-04-03T10:22:12;1.88;;;1.00;;
9789;SDS011;4934;50.852;8.098;2023-04-03T10:38:43;4.68;;;2.33;;
9789;SDS011;4934;50.852;8.098;2023-04-03T10:41:34;3.30;;;1.85;;
9789;SDS011;4934;50.852;8.098;2023-04-03T10:46:59;3.20;;;1.25;;
9789;SDS011;4934;50.852;8.098;2023-04-03T10:52:29;4.18;;;1.50;;
9789;SDS011;4934;50.852;8.098;2023-04-03T10:57:43;11.52;;;2.67;;
9789;SDS011;4934;50.852;8.098;2023-04-03T11:00:21;3.58;;;1.35;;
9789;SDS011;4934;50.852;8.098;2023-04-03T11:02:53;5.78;;;1.70;;
9789;SDS011;4934;50.852;8.098;2023-04-03T11:08:01;4.38;;;1.73;;
9789;SDS011;4934;50.852;8.098;2023-04-03T11:10:39;6.97;;;1.35;;
9789;SDS011;4934;50.852;8.098;2023-04-03T11:13:26;4.45;;;1.20;;
9789;SDS011;4934;50.852;8.098;2023-04-03T11:16:23;3.63;;;1.35;;
9789;SDS011;4934;50.852;8.098;2023-04-03T11:18:56;5.85;;;1.33;;
9789;SDS011;4934;50.852;8.098;2023-04-03T11:22:02;7.45;;;1.48;;
9789;SDS011;4934;50.852;8.098;2023-04-03T11:24:36;5.35;;;1.30;;
9789;SDS011;4934;50.852;8.098;2023-04-03T11:27:05;4.30;;;1.60;;
9789;SDS011;4934;50.852;8.098;2023-04-03T11:29:38;5.50;;;1.65;;
9789;SDS011;4934;50.852;8.098;2023-04-03T11:34:50;2.45;;;1.33;;
9789;SDS011;4934;50.852;8.098;2023-04-03T11:39:54;5.03;;;1.30;;
9789;SDS011;4934;50.852;8.098;2023-04-03T11:47:58;6.03;;;1.23;;
9789;SDS011;4934;50.852;8.098;2023-04-03T11:53:40;3.22;;;1.73;;
9789;SDS011;4934;50.852;8.098;2023-04-03T11:58:22;5.70;;;1.35;;
9789;SDS011;4934;50.852;8.098;2023-04-03T12:03:55;4.95;;;2.10;;
9789;SDS011;4934;50.852;8.098;2023-04-03T12:09:05;7.85;;;1.98;;
9789;SDS011;4934;50.852;8.098;2023-04-03T12:27:33;2.80;;;1.33;;
9789;SDS011;4934;50.852;8.098;2023-04-03T12:32:58;4.72;;;1.67;;
9789;SDS011;4934;50.852;8.098;2023-04-03T12:47:48;2.67;;;0.73;;
9789;SDS011;4934;50.852;8.098;2023-04-03T12:50:30;4.47;;;0.93;;
9789;SDS011;4934;50.852;8.098;2023-04-03T12:53:01;2.58;;;1.13;;
9789;SDS011;4934;50.852;8.098;2023-04-03T12:55:37;4.80;;;0.95;;
9789;SDS011;4934;50.852;8.098;2023-04-03T13:01:24;5.18;;;1.15;;
9789;SDS011;4934;50.852;8.098;2023-04-03T13:06:24;3.53;;;1.25;;
9789;SDS011;4934;50.852;8.098;2023-04-03T13:08:54;2.78;;;1.02;;
9789;SDS011;4934;50.852;8.098;2023-04-03T13:11:25;5.88;;;1.27;;
9789;SDS011;4934;50.852;8.098;2023-04-03T13:16:27;2.75;;;1.38;;
9789;SDS011;4934;50.852;8.098;2023-04-03T13:18:53;2.63;;;0.93;;
9789;SDS011;4934;50.852;8.098;2023-04-03T13:21:20;1.98;;;0.90;;
9789;SDS011;4934;50.852;8.098;2023-04-03T13:23:52;3.83;;;1.15;;
9789;SDS011;4934;50.852;8.098;2023-04-03T13:30:17;6.88;;;2.33;;
9789;SDS011;4934;50.852;8.098;2023-04-03T13:32:47;4.50;;;1.33;;
9789;SDS011;4934;50.852;8.098;2023-04-03T13:37:55;5.03;;;1.20;;
9789;SDS011;4934;50.852;8.098;2023-04-03T13:41:26;2.83;;;1.38;;
9789;SDS011;4934;50.852;8.098;2023-04-03T13:47:50;3.33;;;0.88;;
9789;SDS011;4934;50.852;8.098;2023-04-03T13:50:21;6.00;;;1.03;;
9789;SDS011;4934;50.852;8.098;2023-04-03T13:53:00;2.80;;;1.20;;
9789;SDS011;4934;50.852;8.098;2023-04-03T13:55:29;1.95;;;1.10;;
9789;SDS011;4934;50.852;8.098;2023-04-03T14:00:49;2.17;;;0.90;;
9789;SDS011;4934;50.852;8.098;2023-04-03T14:03:41;2.72;;;1.10;;
9789;SDS011;4934;50.852;8.098;2023-04-03T14:06:13;3.70;;;1.30;;
9789;SDS011;4934;50.852;8.098;2023-04-03T14:08:41;5.15;;;1.42;;
9789;SDS011;4934;50.852;8.098;2023-04-03T14:11:12;6.18;;;3.28;;
9789;SDS011;4934;50.852;8.098;2023-04-03T14:13:41;3.67;;;1.00;;
9789;SDS011;4934;50.852;8.098;2023-04-03T14:16:11;2.33;;;1.05;;
9789;SDS011;4934;50.852;8.098;2023-04-03T14:18:38;4.53;;;1.13;;
9789;SDS011;4934;50.852;8.098;2023-04-03T14:21:04;3.35;;;1.00;;
9789;SDS011;4934;50.852;8.098;2023-04-03T14:23:30;4.80;;;1.00;;
9789;SDS011;4934;50.852;8.098;2023-04-03T14:25:56;5.47;;;1.00;;
9789;SDS011;4934;50.852;8.098;2023-04-03T14:28:21;2.92;;;1.67;;
9789;SDS011;4934;50.852;8.098;2023-04-03T14:30:48;2.85;;;1.13;;
9789;SDS011;4934;50.852;8.098;2023-04-03T14:33:16;2.47;;;1.33;;
9789;SDS011;4934;50.852;8.098;2023-04-03T14:35:45;2.80;;;1.33;;
9789;SDS011;4934;50.852;8.098;2023-04-03T14:38:20;3.05;;;0.95;;
9789;SDS011;4934;50.852;8.098;2023-04-03T14:43:16;3.63;;;1.48;;
9789;SDS011;4934;50.852;8.098;2023-04-03T14:45:42;4.53;;;1.27;;
9789;SDS011;4934;50.852;8.098;2023-04-03T14:48:19;3.05;;;1.80;;
9789;SDS011;4934;50.852;8.098;2023-04-03T14:50:50;2.95;;;1.05;;
9789;SDS011;4934;50.852;8.098;2023-04-03T14:53:17;2.65;;;1.15;;
9789;SDS011;4934;50.852;8.098;2023-04-03T14:55:47;4.05;;;1.27;;
9789;SDS011;4934;50.852;8.098;2023-04-03T14:58:15;2.38;;;1.08;;
9789;SDS011;4934;50.852;8.098;2023-04-03T15:00:42;6.67;;;1.33;;
9789;SDS011;4934;50.852;8.098;2023-04-03T15:03:15;4.80;;;1.15;;
9789;SDS011;4934;50.852;8.098;2023-04-03T15:05:43;2.30;;;0.90;;
9789;SDS011;4934;50.852;8.098;2023-04-03T15:08:23;4.10;;;1.10;;
9789;SDS011;4934;50.852;8.098;2023-04-03T15:10:51;5.82;;;1.65;;
9789;SDS011;4934;50.852;8.098;2023-04-03T15:13:18;5.07;;;1.15;;
9789;SDS011;4934;50.852;8.098;2023-04-03T15:15:45;2.65;;;0.98;;
9789;SDS011;4934;50.852;8.098;2023-04-03T15:18:24;6.97;;;1.33;;
9789;SDS011;4934;50.852;8.098;2023-04-03T15:20:55;2.00;;;0.90;;
9789;SDS011;4934;50.852;8.098;2023-04-03T15:25:51;2.88;;;1.25;;
9789;SDS011;4934;50.852;8.098;2023-04-03T15:30:48;7.07;;;1.13;;
9789;SDS011;4934;50.852;8.098;2023-04-03T15:33:15;5.80;;;1.42;;
9789;SDS011;4934;50.852;8.098;2023-04-03T15:35:41;2.42;;;1.10;;
9789;SDS011;4934;50.852;8.098;2023-04-03T15:38:07;1.92;;;1.08;;
9789;SDS011;4934;50.852;8.098;2023-04-03T15:40:33;4.38;;;1.48;;
9789;SDS011;4934;50.852;8.098;2023-04-03T15:42:58;7.53;;;1.33;;
9789;SDS011;4934;50.852;8.098;2023-04-03T15:45:24;4.97;;;1.35;;
9789;SDS011;4934;50.852;8.098;2023-04-03T15:47:50;2.55;;;1.30;;
9789;SDS011;4934;50.852;8.098;2023-04-03T15:50:17;4.30;;;0.98;;
9789;SDS011;4934;50.852;8.098;2023-04-03T15:52:43;3.00;;;1.08;;
9789;SDS011;4934;50.852;8.098;2023-04-03T15:55:08;3.65;;;1.02;;
9789;SDS011;4934;50.852;8.098;2023-04-03T15:57:34;3.42;;;1.13;;
9789;SDS011;4934;50.852;8.098;2023-04-03T16:00:00;6.32;;;1.17;;
9789;SDS011;4934;50.852;8.098;2023-04-03T16:02:25;4.93;;;1.10;;
9789;SDS011;4934;50.852;8.098;2023-04-03T16:04:53;3.58;;;1.33;;
9789;SDS011;4934;50.852;8.098;2023-04-03T16:07:19;2.70;;;1.15;;
9789;SDS011;4934;50.852;8.098;2023-04-03T16:09:45;3.03;;;1.17;;
9789;SDS011;4934;50.852;8.098;2023-04-03T16:12:11;2.88;;;1.10;;
9789;SDS011;4934;50.852;8.098;2023-04-03T16:14:36;6.47;;;1.67;;
9789;SDS011;4934;50.852;8.098;2023-04-03T16:17:02;2.90;;;1.10;;
9789;SDS011;4934;50.852;8.098;2023-04-03T16:19:28;4.78;;;1.45;;
9789;SDS011;4934;50.852;8.098;2023-04-03T16:21:54;3.75;;;1.20;;
9789;SDS011;4934;50.852;8.098;2023-04-03T16:24:20;2.80;;;1.05;;
9789;SDS011;4934;50.852;8.098;2023-04-03T16:26:46;6.53;;;1.40;;
9789;SDS011;4934;50.852;8.098;2023-04-03T16:29:12;2.88;;;1.10;;
9789;SDS011;4934;50.852;8.098;2023-04-03T16:31:37;2.03;;;1.55;;
9789;SDS011;4934;50.852;8.098;2023-04-03T16:34:03;4.85;;;1.42;;
9789;SDS011;4934;50.852;8.098;2023-04-03T16:36:29;3.70;;;1.63;;
9789;SDS011;4934;50.852;8.098;2023-04-03T16:38:55;2.78;;;1.20;;
9789;SDS011;4934;50.852;8.098;2023-04-03T16:41:20;6.22;;;1.85;;
9789;SDS011;4934;50.852;8.098;2023-04-03T16:43:46;3.95;;;1.40;;
9789;SDS011;4934;50.852;8.098;2023-04-03T16:46:12;2.67;;;1.50;;
9789;SDS011;4934;50.852;8.098;2023-04-03T16:48:37;4.18;;;1.50;;
9789;SDS011;4934;50.852;8.098;2023-04-03T16:51:03;5.78;;;1.70;;
9789;SDS011;4934;50.852;8.098;2023-04-03T16:53:28;3.05;;;1.33;;
9789;SDS011;4934;50.852;8.098;2023-04-03T16:55:56;5.93;;;1.50;;
9789;SDS011;4934;50.852;8.098;2023-04-03T16:58:22;5.25;;;1.27;;
9789;SDS011;4934;50.852;8.098;2023-04-03T17:00:48;2.92;;;1.40;;
9789;SDS011;4934;50.852;8.098;2023-04-03T17:03:14;2.75;;;1.20;;
9789;SDS011;4934;50.852;8.098;2023-04-03T17:05:40;3.05;;;1.02;;
9789;SDS011;4934;50.852;8.098;2023-04-03T17:08:05;3.03;;;1.40;;
9789;SDS011;4934;50.852;8.098;2023-04-03T17:10:31;7.07;;;1.35;;
9789;SDS011;4934;50.852;8.098;2023-04-03T17:12:59;6.30;;;2.30;;
9789;SDS011;4934;50.852;8.098;2023-04-03T17:15:25;4.95;;;1.50;;
9789;SDS011;4934;50.852;8.098;2023-04-03T17:17:51;9.45;;;1.40;;
9789;SDS011;4934;50.852;8.098;2023-04-03T17:20:17;4.68;;;1.45;;
9789;SDS011;4934;50.852;8.098;2023-04-03T17:22:43;9.80;;;2.08;;
9789;SDS011;4934;50.852;8.098;2023-04-03T17:25:09;4.53;;;1.85;;
9789;SDS011;4934;50.852;8.098;2023-04-03T17:27:35;8.00;;;1.88;;
9789;SDS011;4934;50.852;8.098;2023-04-03T17:30:02;3.65;;;1.13;;
9789;SDS011;4934;50.852;8.098;2023-04-03T17:32:28;3.25;;;1.60;;
9789;SDS011;4934;50.852;8.098;2023-04-03T17:34:54;3.35;;;1.30;;
9789;SDS011;4934;50.852;8.098;2023-04-03T17:37:20;6.35;;;1.88;;
9789;SDS011;4934;50.852;8.098;2023-04-03T17:39:45;2.60;;;1.45;;
9789;SDS011;4934;50.852;8.098;2023-04-03T17:42:11;5.30;;;1.23;;